Time;durP1;ratioP1;P1;durP2;ratioP2;P2;SDS_P1;SDS_P2;PMS_P1;PMS_P2;Temp;Humidity;BMP_temperature;BMP_pressure;BME280_temperature;BME280_humidity;BME280_pressure;Samples;Min_cycle;Max_cycle;Signal;HPM_P1;HPM_P2
2023/12/09 00:01:56;;;;;;;32.17;8.55;;;;;;;6.66;100.00;101001.97;6339412;22;20014;-87
2023/12/09 00:04:21;;;;;;;25.80;7.72;;;;;;;6.67;100.00;101001.13;6311948;22;20038;-88
2023/12/09 00:06:48;;;;;;;36.78;8.95;;;;;;;6.66;100.00;100991.47;6339385;22;20010;-89
2023/12/09 00:09:15;;;;;;;30.27;7.65;;;;;;;6.63;100.00;100988.75;6339452;22;20007;-88
2023/12/09 00:11:41;;;;;;;24.75;7.22;;;;;;;6.65;100.00;100987.06;6311544;22;20010;-87
2023/12/09 00:14:06;;;;;;;35.88;8.30;;;;;;;6.65;100.00;100994.94;6339067;22;20011;-87
2023/12/09 00:16:32;;;;;;;33.67;8.38;;;;;;;6.53;100.00;100972.72;6285898;22;20038;-87
2023/12/09 00:18:59;;;;;;;29.70;8.40;;;;;;;6.55;100.00;100978.00;6339383;22;20007;-88
2023/12/09 00:21:24;;;;;;;33.50;8.25;;;;;;;6.62;100.00;100993.09;6311385;22;20021;-87
2023/12/09 00:23:49;;;;;;;25.77;8.50;;;;;;;6.41;100.00;100963.59;6311806;22;20007;-87
2023/12/09 00:26:15;;;;;;;28.83;8.02;;;;;;;6.46;100.00;100968.13;6311431;22;20090;-87
2023/12/09 00:28:40;;;;;;;32.60;8.50;;;;;;;6.61;100.00;101000.94;6311522;22;20056;-87
2023/12/09 00:31:06;;;;;;;35.88;9.05;;;;;;;6.48;100.00;100992.72;6338907;22;20019;-87
2023/12/09 00:33:32;;;;;;;28.30;8.48;;;;;;;6.58;100.00;101012.25;6338980;22;20014;-87
2023/12/09 00:35:57;;;;;;;28.17;8.40;;;;;;;6.30;100.00;100952.81;6311329;22;20003;-87
2023/12/09 00:38:22;;;;;;;31.85;8.57;;;;;;;6.44;100.00;100980.34;6338799;22;20444;-88
2023/12/09 00:40:48;;;;;;;35.30;8.38;;;;;;;6.56;100.00;100998.19;6285310;22;20009;-88
2023/12/09 00:43:13;;;;;;;40.58;9.90;;;;;;;6.61;100.00;100986.09;6260164;22;20003;-88
2023/12/09 00:45:38;;;;;;;31.50;8.63;;;;;;;6.59;100.00;100995.63;6285438;22;20437;-88
2023/12/09 00:48:06;;;;;;;29.42;7.95;;;;;;;6.59;100.00;100994.75;6311000;22;20006;-87
2023/12/09 00:50:31;;;;;;;27.70;7.90;;;;;;;6.45;100.00;100982.09;6339177;22;19999;-88
2023/12/09 00:52:57;;;;;;;33.63;8.80;;;;;;;6.60;100.00;100994.81;6285567;22;20011;-88
2023/12/09 00:55:22;;;;;;;29.30;7.35;;;;;;;6.65;100.00;100997.56;6311278;22;20053;-89
2023/12/09 00:57:47;;;;;;;27.00;8.18;;;;;;;6.61;100.00;100993.06;6311480;22;20417;-89
2023/12/09 01:00:15;;;;;;;29.88;7.90;;;;;;;6.61;100.00;100993.97;6285528;22;20074;-88
2023/12/09 01:02:40;;;;;;;37.17;8.85;;;;;;;6.51;100.00;100973.53;6338888;22;20006;-88
2023/12/09 01:05:06;;;;;;;34.88;7.78;;;;;;;6.61;100.00;100979.94;6338974;22;20011;-88
2023/12/09 01:07:31;;;;;;;27.05;7.38;;;;;;;6.57;100.00;100988.56;6311233;22;20006;-88
2023/12/09 01:09:57;;;;;;;30.67;8.40;;;;;;;6.45;100.00;100968.09;6311415;22;20026;-89
2023/12/09 01:12:22;;;;;;;28.65;7.78;;;;;;;6.51;100.00;100987.56;6285501;22;20056;-88
2023/12/09 01:14:47;;;;;;;21.15;7.25;;;;;;;6.47;100.00;100982.19;6311005;22;20081;-87
2023/12/09 01:17:13;;;;;;;32.00;8.40;;;;;;;6.40;100.00;100974.94;6311384;22;20329;-88
2023/12/09 01:19:38;;;;;;;31.05;8.38;;;;;;;6.44;100.00;100971.56;6311417;22;20085;-88
2023/12/09 01:22:04;;;;;;;32.30;7.43;;;;;;;6.36;100.00;100966.09;6338757;22;20068;-87
2023/12/09 01:24:29;;;;;;;31.63;7.93;;;;;;;6.39;100.00;100984.56;6259618;22;20405;-87
2023/12/09 01:26:54;;;;;;;32.60;9.50;;;;;;;6.39;100.00;100991.56;6338504;22;20391;-87
2023/12/09 01:29:20;;;;;;;26.35;8.68;;;;;;;6.32;100.00;100979.97;6338518;22;20014;-87
2023/12/09 01:31:45;;;;;;;26.45;8.43;;;;;;;6.33;100.00;100978.22;6311052;22;20006;-88
2023/12/09 01:34:11;;;;;;;26.17;8.63;;;;;;;6.16;100.00;100959.34;6310767;22;20022;-87
2023/12/09 01:36:36;;;;;;;32.70;8.20;;;;;;;6.30;100.00;100991.28;6338851;22;19999;-88
2023/12/09 01:39:02;;;;;;;24.98;8.23;;;;;;;6.18;100.00;100981.28;6338485;22;20010;-88
2023/12/09 01:41:28;;;;;;;29.00;8.27;;;;;;;6.25;100.00;100991.13;6311209;22;20007;-87
2023/12/09 01:43:54;;;;;;;35.58;8.05;;;;;;;6.22;100.00;100989.31;6311063;22;20333;-88
2023/12/09 01:46:21;;;;;;;25.63;7.88;;;;;;;6.00;100.00;100948.41;6338785;22;20087;-88
2023/12/09 01:48:47;;;;;;;29.73;8.43;;;;;;;6.12;100.00;100967.97;6338745;22;20393;-88
2023/12/09 01:51:16;;;;;;;34.75;8.88;;;;;;;6.17;100.00;100974.28;6310894;22;20003;-88
2023/12/09 01:53:42;;;;;;;27.60;8.73;;;;;;;6.16;100.00;100961.97;6310913;22;20056;-88
2023/12/09 01:56:10;;;;;;;26.98;8.32;;;;;;;5.99;100.00;100925.63;6310978;22;20034;-88
2023/12/09 01:58:37;;;;;;;26.65;8.32;;;;;;;6.00;100.00;100934.41;6312124;22;20010;-88
2023/12/09 02:01:03;;;;;;;31.13;8.40;;;;;;;6.12;100.00;100945.25;6340481;22;20002;-88
2023/12/09 02:03:31;;;;;;;26.65;7.22;;;;;;;6.08;100.00;100932.91;6286926;22;20014;-88
2023/12/09 02:05:57;;;;;;;29.40;7.60;;;;;;;6.07;100.00;100930.22;6286950;22;20015;-87
2023/12/09 02:08:22;;;;;;;24.80;7.40;;;;;;;6.13;100.00;100954.03;6340519;22;20060;-88
2023/12/09 02:10:57;;;;;;;24.92;7.28;;;;;;;6.11;100.00;100956.59;6313119;22;20075;-87
2023/12/09 02:13:35;;;;;;;24.00;7.63;;;;;;;6.11;100.00;100958.31;6340249;22;20111;-88
2023/12/09 02:16:14;;;;;;;35.40;7.95;;;;;;;6.08;100.00;100952.97;6312878;22;20140;-87
2023/12/09 02:18:42;;;;;;;27.17;7.50;;;;;;;6.09;100.00;100952.16;6340108;22;20006;-86
2023/12/09 02:21:07;;;;;;;34.28;8.48;;;;;;;6.01;100.00;100937.06;6312523;22;20151;-87
2023/12/09 02:23:33;;;;;;;30.73;7.22;;;;;;;6.05;100.00;100945.03;6340203;22;20038;-87
2023/12/09 02:26:07;;;;;;;28.00;8.60;;;;;;;6.05;100.00;100961.66;6340438;22;20030;-88
2023/12/09 02:28:40;;;;;;;29.80;8.25;;;;;;;6.02;100.00;100935.31;6340793;22;20013;-87
2023/12/09 02:31:19;;;;;;;;;;;;;;;6.07;100.00;100938.09;6340656;22;20359;-87
2023/12/09 02:33:44;;;;;;;33.13;8.13;;;;;;;6.02;100.00;100933.59;6312086;22;19910;-87
2023/12/09 02:36:20;;;;;;;24.48;7.22;;;;;;;6.05;100.00;100937.16;6312812;22;20048;-88
2023/12/09 02:38:47;;;;;;;28.45;7.68;;;;;;;6.03;100.00;100929.22;6340434;22;20009;-88
2023/12/09 02:41:13;;;;;;;30.40;8.07;;;;;;;5.99;100.00;100924.72;6313059;22;20003;-87
2023/12/09 02:43:41;;;;;;;22.92;7.47;;;;;;;5.85;100.00;100898.06;6313263;22;20056;-88
2023/12/09 02:46:10;;;;;;;29.92;7.88;;;;;;;6.05;100.00;100914.44;6312985;22;20010;-87
2023/12/09 02:48:36;;;;;;;28.52;7.47;;;;;;;6.02;100.00;100901.22;6340428;22;20013;-87
2023/12/09 02:51:01;;;;;;;31.00;7.20;;;;;;;6.02;100.00;100912.59;6340123;22;20006;-87
2023/12/09 02:53:27;;;;;;;34.30;7.15;;;;;;;6.05;100.00;100905.69;6287182;22;20528;-86
2023/12/09 02:55:52;;;;;;;24.23;7.50;;;;;;;6.03;100.00;100900.38;6340814;22;20432;-88
2023/12/09 02:58:17;;;;;;;30.25;8.25;;;;;;;6.04;100.00;100917.94;6312589;22;20030;-88
2023/12/09 03:00:43;;;;;;;32.25;7.05;;;;;;;5.93;100.00;100891.34;6312954;22;20086;-88
2023/12/09 03:03:08;;;;;;;25.42;6.95;;;;;;;6.06;100.00;100904.84;6313275;22;20003;-88
2023/12/09 03:05:33;;;;;;;25.05;6.90;;;;;;;5.97;100.00;100898.47;6340162;22;20056;-90
2023/12/09 03:07:59;;;;;;;26.80;6.30;;;;;;;6.05;100.00;100890.84;6340249;22;20026;-87
2023/12/09 03:10:24;;;;;;;37.28;6.75;;;;;;;6.07;100.00;100904.88;6340062;22;20033;-87
2023/12/09 03:12:50;;;;;;;27.83;6.50;;;;;;;5.86;100.00;100842.16;6287237;22;20007;-85
2023/12/09 03:15:15;;;;;;;29.90;6.78;;;;;;;6.05;100.00;100900.44;6312990;22;20401;-88
2023/12/09 03:17:43;;;;;;;27.58;7.20;;;;;;;5.99;100.00;100875.78;6313285;22;20002;-88
2023/12/09 03:20:09;;;;;;;34.88;7.32;;;;;;;5.89;100.00;100872.81;6313673;22;20040;-88
2023/12/09 03:22:34;;;;;;;31.08;6.60;;;;;;;6.03;100.00;100875.03;6312268;22;20010;-88
2023/12/09 03:25:00;;;;;;;25.90;6.20;;;;;;;6.03;100.00;100893.41;6340419;22;20003;-87
2023/12/09 03:27:25;;;;;;;26.17;7.00;;;;;;;6.00;100.00;100880.22;6340011;22;20094;-87
2023/12/09 03:29:50;;;;;;;38.50;7.20;;;;;;;5.88;100.00;100884.16;6287150;22;20014;-87
2023/12/09 03:32:16;;;;;;;36.10;7.13;;;;;;;5.99;100.00;100877.53;6312722;22;20068;-87
2023/12/09 03:34:43;;;;;;;29.35;6.25;;;;;;;6.02;100.00;100899.50;6340118;22;20329;-88
2023/12/09 03:37:09;;;;;;;27.27;5.68;;;;;;;6.00;100.00;100888.09;6312718;22;20429;-87
2023/12/09 03:39:34;;;;;;;28.70;6.28;;;;;;;6.00;100.00;100895.94;6286189;22;20064;-88
2023/12/09 03:42:00;;;;;;;24.02;6.05;;;;;;;6.02;100.00;100890.75;6312092;22;20014;-88
2023/12/09 03:44:25;;;;;;;25.08;6.03;;;;;;;5.91;100.00;100861.56;6339263;22;20011;-87
2023/12/09 03:46:51;;;;;;;29.52;6.65;;;;;;;5.96;100.00;100872.22;6312361;22;20006;-87
2023/12/09 03:49:16;;;;;;;23.38;6.28;;;;;;;5.98;100.00;100879.25;6339948;22;20010;-87
2023/12/09 03:51:41;;;;;;;23.48;6.35;;;;;;;6.01;100.00;100881.09;6312024;22;20133;-87
2023/12/09 03:54:07;;;;;;;21.70;5.88;;;;;;;5.95;100.00;100863.47;6339518;22;20036;-87
2023/12/09 03:56:32;;;;;;;24.05;6.07;;;;;;;5.96;100.00;100865.22;6312246;22;20014;-88
2023/12/09 03:58:58;;;;;;;34.60;6.93;;;;;;;5.99;100.00;100862.66;6312005;22;20494;-90
2023/12/09 04:01:24;;;;;;;29.58;7.28;;;;;;;5.94;100.00;100848.53;6311971;22;20429;-88
2023/12/09 04:03:50;;;;;;;26.67;6.97;;;;;;;5.83;100.00;100820.22;6339860;22;20013;-87
2023/12/09 04:06:15;;;;;;;29.02;6.20;;;;;;;5.84;100.00;100822.88;6311853;22;20026;-87
2023/12/09 04:08:41;;;;;;;26.75;6.20;;;;;;;5.96;100.00;100835.50;6312794;22;20413;-87
2023/12/09 04:11:06;;;;;;;26.15;6.00;;;;;;;5.77;100.00;100803.44;6287211;22;20069;-88
2023/12/09 04:13:32;;;;;;;32.83;5.60;;;;;;;5.88;100.00;100829.97;6340525;22;20029;-88
2023/12/09 04:15:58;;;;;;;33.08;6.25;;;;;;;6.02;100.00;100839.16;6340872;22;20006;-89
2023/12/09 04:18:23;;;;;;;28.63;6.22;;;;;;;5.84;100.00;100811.50;6313552;22;20014;-88
2023/12/09 04:20:49;;;;;;;26.33;6.25;;;;;;;6.01;100.00;100841.75;6340633;22;20081;-88
2023/12/09 04:23:15;;;;;;;28.23;6.45;;;;;;;6.01;100.00;100839.13;6313165;22;20325;-88
2023/12/09 04:25:40;;;;;;;28.73;6.20;;;;;;;6.05;100.00;100840.13;6313774;22;20002;-88
2023/12/09 04:28:06;;;;;;;22.65;5.88;;;;;;;6.03;100.00;100834.81;6341593;22;20021;-87
2023/12/09 04:30:31;;;;;;;30.75;5.90;;;;;;;5.70;100.00;100780.53;6341647;22;20055;-88
2023/12/09 04:32:56;;;;;;;19.70;5.68;;;;;;;5.85;100.00;100810.66;6339842;22;20010;-88
2023/12/09 04:35:22;;;;;;;26.55;5.93;;;;;;;5.99;100.00;100832.94;6338923;22;20049;-87
2023/12/09 04:37:47;;;;;;;26.08;6.28;;;;;;;5.95;100.00;100826.75;6339241;22;20002;-88
2023/12/09 04:40:13;;;;;;;24.80;5.63;;;;;;;5.94;100.00;100821.44;6338771;22;20007;-88
2023/12/09 04:42:39;;;;;;;30.42;6.72;;;;;;;5.95;100.00;100820.56;6311622;22;20007;-87
2023/12/09 04:45:06;;;;;;;27.13;5.85;;;;;;;5.82;100.00;100802.69;6338983;22;20010;-88
2023/12/09 04:47:32;;;;;;;22.33;5.22;;;;;;;5.95;100.00;100817.94;6340492;22;20034;-88
2023/12/09 04:49:57;;;;;;;23.95;5.53;;;;;;;5.87;100.00;100798.47;6286757;22;20007;-88
2023/12/09 04:52:23;;;;;;;23.45;5.63;;;;;;;5.84;100.00;100801.91;6313076;22;20580;-88
2023/12/09 04:54:49;;;;;;;26.70;5.63;;;;;;;5.76;100.00;100788.56;6341271;22;20018;-88
2023/12/09 04:57:14;;;;;;;24.48;6.35;;;;;;;5.87;100.00;100808.97;6286956;22;20383;-87
2023/12/09 04:59:39;;;;;;;25.23;5.72;;;;;;;5.84;100.00;100795.75;6341351;22;20368;-86
2023/12/09 05:02:05;;;;;;;25.23;5.70;;;;;;;5.80;100.00;100775.53;6340251;22;20348;-87
2023/12/09 05:04:30;;;;;;;20.23;5.63;;;;;;;5.81;100.00;100795.66;6341467;22;20002;-88
2023/12/09 05:06:56;;;;;;;15.80;5.13;;;;;;;5.78;100.00;100793.81;6340509;22;20007;-88
2023/12/09 05:09:24;;;;;;;24.92;5.63;;;;;;;5.71;100.00;100786.66;6311508;22;20356;-88
2023/12/09 05:11:49;;;;;;;26.83;5.63;;;;;;;5.71;100.00;100786.66;6339392;22;20007;-87
2023/12/09 05:14:15;;;;;;;30.15;5.97;;;;;;;5.64;100.00;100772.47;6339354;22;20357;-87
2023/12/09 05:16:40;;;;;;;21.52;5.50;;;;;;;5.61;100.00;100763.63;6339230;22;20086;-88
2023/12/09 05:19:06;;;;;;;17.05;5.15;;;;;;;5.70;100.00;100788.38;6339043;22;20010;-87
2023/12/09 05:21:32;;;;;;;30.13;5.78;;;;;;;5.62;100.00;100781.16;6285968;22;20014;-88
2023/12/09 05:23:57;;;;;;;15.73;5.32;;;;;;;5.54;100.00;100759.94;6338998;22;20333;-88
2023/12/09 05:26:27;;;;;;;22.98;5.40;;;;;;;5.62;100.00;100773.28;6340212;22;20031;-88
2023/12/09 05:28:53;;;;;;;20.02;4.85;;;;;;;5.69;100.00;100789.22;6340822;22;20038;-87
2023/12/09 05:31:20;;;;;;;26.23;6.53;;;;;;;5.71;100.00;100786.66;6288082;22;20003;-88
2023/12/09 05:33:46;;;;;;;24.25;5.38;;;;;;;5.66;100.00;100770.78;6315625;22;20011;-87
2023/12/09 05:36:11;;;;;;;23.27;5.40;;;;;;;5.72;100.00;100775.31;6344019;22;20010;-87
2023/12/09 05:38:37;;;;;;;20.00;4.53;;;;;;;5.58;100.00;100761.81;6345775;22;20034;-88
2023/12/09 05:41:07;;;;;;;22.15;5.18;;;;;;;5.44;100.00;100739.56;6345668;22;20087;-87
2023/12/09 05:43:32;;;;;;;20.38;5.18;;;;;;;5.67;100.00;100771.69;6344659;22;20002;-87
2023/12/09 05:45:58;;;;;;;25.02;5.68;;;;;;;5.51;100.00;100741.50;6343791;22;20056;-88
2023/12/09 05:48:23;;;;;;;19.13;4.95;;;;;;;5.73;100.00;100767.47;6345342;22;20379;-88
2023/12/09 05:50:49;;;;;;;17.52;5.05;;;;;;;5.77;100.00;100760.59;6345025;22;20011;-87
2023/12/09 05:53:14;;;;;;;22.58;6.15;;;;;;;5.71;100.00;100758.69;6347384;22;20014;-87
2023/12/09 05:55:39;;;;;;;28.30;5.07;;;;;;;5.77;100.00;100761.47;6350828;22;20013;-87
2023/12/09 05:58:05;;;;;;;25.50;5.50;;;;;;;5.76;100.00;100764.06;6349539;22;20003;-87
2023/12/09 06:00:31;;;;;;;18.45;4.90;;;;;;;5.65;100.00;100736.66;6322909;22;20011;-88
2023/12/09 06:02:56;;;;;;;26.85;5.35;;;;;;;5.78;100.00;100763.28;6349492;22;20400;-88
2023/12/09 06:05:22;;;;;;;23.35;5.00;;;;;;;5.81;100.00;100764.19;6349554;22;20030;-86
2023/12/09 06:07:47;;;;;;;23.55;5.00;;;;;;;5.84;100.00;100765.19;6349814;22;20003;-85
2023/12/09 06:10:14;;;;;;;25.00;5.68;;;;;;;5.67;100.00;100732.34;6349198;22;20023;-86
2023/12/09 06:12:40;;;;;;;18.02;5.28;;;;;;;5.70;100.00;100735.06;6349237;22;20053;-85
2023/12/09 06:15:06;;;;;;;24.02;4.80;;;;;;;5.89;100.00;100754.81;6322391;22;20023;-85
2023/12/09 06:17:32;;;;;;;21.33;4.70;;;;;;;5.75;100.00;100734.34;6322639;22;20460;-86
2023/12/09 06:19:58;;;;;;;23.90;4.72;;;;;;;5.80;100.00;100736.22;6349325;22;20003;-86
2023/12/09 06:22:23;;;;;;;26.33;5.40;;;;;;;5.79;100.00;100724.84;6349628;22;20007;-86
2023/12/09 06:24:48;;;;;;;17.73;4.32;;;;;;;5.82;100.00;100727.53;6295118;22;20009;-86
2023/12/09 06:27:14;;;;;;;18.42;4.60;;;;;;;5.84;100.00;100722.34;6347310;22;20128;-86
2023/12/09 06:29:39;;;;;;;22.42;4.55;;;;;;;5.83;100.00;100713.59;6319548;22;20333;-86
2023/12/09 06:32:05;;;;;;;19.48;4.93;;;;;;;5.69;100.00;100696.56;6290523;22;20436;-85
2023/12/09 06:34:31;;;;;;;22.27;5.05;;;;;;;5.75;100.00;100699.38;6314559;22;20041;-86
2023/12/09 06:36:56;;;;;;;21.92;4.70;;;;;;;5.76;100.00;100704.66;6339988;22;20086;-86
2023/12/09 06:39:21;;;;;;;21.52;4.68;;;;;;;5.77;100.00;100713.41;6312647;22;20007;-86
2023/12/09 06:41:48;;;;;;;23.75;5.20;;;;;;;5.75;100.00;100702.88;6312623;22;20010;-86
2023/12/09 06:44:14;;;;;;;15.55;5.03;;;;;;;5.74;100.00;100705.47;6312552;22;20376;-86
2023/12/09 06:46:40;;;;;;;20.85;4.60;;;;;;;5.78;100.00;100692.50;6340114;22;20007;-86
2023/12/09 06:49:05;;;;;;;28.33;5.13;;;;;;;5.69;100.00;100673.84;6340101;22;20048;-86
2023/12/09 06:51:31;;;;;;;17.00;4.75;;;;;;;5.80;100.00;100675.91;6339791;22;20015;-87
2023/12/09 06:53:56;;;;;;;24.50;4.63;;;;;;;5.67;100.00;100649.34;6340061;22;20082;-87
2023/12/09 06:56:22;;;;;;;23.42;5.53;;;;;;;5.59;100.00;100647.38;6340083;22;20354;-86
2023/12/09 06:58:48;;;;;;;22.67;5.22;;;;;;;5.80;100.00;100675.91;6339513;22;20009;-86
2023/12/09 07:01:23;;;;;;;21.20;4.50;;;;;;;5.76;100.00;100652.22;6339505;22;20007;-87
2023/12/09 07:03:49;;;;;;;29.50;5.47;;;;;;;5.70;100.00;100638.97;6339794;22;20002;-87
2023/12/09 07:06:17;;;;;;;22.67;4.93;;;;;;;5.70;100.00;100631.09;6339702;22;20009;-86
2023/12/09 07:08:44;;;;;;;20.02;4.50;;;;;;;5.68;100.00;100629.25;6339419;22;20417;-86
2023/12/09 07:11:09;;;;;;;20.92;4.78;;;;;;;5.45;100.00;100590.22;6339881;22;20014;-86
2023/12/09 07:13:35;;;;;;;16.48;4.18;;;;;;;5.65;100.00;100616.06;6339575;22;20055;-86
2023/12/09 07:16:00;;;;;;;22.55;4.65;;;;;;;5.60;100.00;100602.84;6339303;22;20425;-87
2023/12/09 07:18:26;;;;;;;21.25;5.25;;;;;;;5.56;100.00;100592.25;6341185;22;20102;-86
2023/12/09 07:20:51;;;;;;;14.40;4.15;;;;;;;5.57;100.00;100587.06;6311524;22;20013;-86
2023/12/09 07:23:16;;;;;;;22.92;4.57;;;;;;;5.54;100.00;100573.88;6286284;22;20386;-86
2023/12/09 07:25:45;;;;;;;15.50;4.82;;;;;;;5.66;100.00;100596.91;6339738;22;20006;-87
2023/12/09 07:28:10;;;;;;;20.50;5.15;;;;;;;5.66;100.00;100603.03;6339509;22;20003;-88
2023/12/09 07:30:35;;;;;;;14.10;4.50;;;;;;;5.67;100.00;100596.94;6286234;22;20011;-86
2023/12/09 07:36:23;;;;;;;23.73;4.65;;;;;;;5.30;100.00;100537.41;6307965;22;20091;-86
2023/12/09 07:38:48;;;;;;;21.95;4.68;;;;;;;5.68;100.00;100601.31;6307912;22;20070;-86
2023/12/09 07:41:14;;;;;;;22.38;5.15;;;;;;;5.58;100.00;100572.22;6280493;22;20113;-86
2023/12/09 07:43:39;;;;;;;22.52;5.28;;;;;;;5.65;100.00;100574.13;6308780;22;20428;-88
2023/12/09 07:46:05;;;;;;;17.85;4.40;;;;;;;5.75;100.00;100589.28;6280687;22;20007;-87
2023/12/09 07:48:30;;;;;;;20.65;5.10;;;;;;;5.74;100.00;100583.16;6309061;22;20011;-86
2023/12/09 07:51:00;;;;;;;21.42;4.45;;;;;;;5.74;100.00;100574.41;6306600;22;20042;-87
2023/12/09 07:53:25;;;;;;;16.00;4.50;;;;;;;5.85;100.00;100582.53;6306866;22;20003;-87
2023/12/09 07:55:50;;;;;;;21.75;5.57;;;;;;;5.77;100.00;100554.34;6306275;22;20011;-87
2023/12/09 07:58:16;;;;;;;19.42;4.38;;;;;;;5.87;100.00;100559.88;6307983;22;20104;-88
2023/12/09 08:00:41;;;;;;;21.67;4.75;;;;;;;5.95;100.00;100566.19;6306322;22;20007;-88
2023/12/09 08:03:06;;;;;;;28.95;5.05;;;;;;;5.86;100.00;100544.97;6306170;22;20417;-87
2023/12/09 08:05:34;;;;;;;17.63;4.43;;;;;;;6.00;100.00;100546.25;6280841;22;20018;-88
2023/12/09 08:08:00;;;;;;;17.73;4.63;;;;;;;5.98;100.00;100537.44;6308092;22;19999;-86
2023/12/09 08:10:25;;;;;;;16.45;4.07;;;;;;;6.08;100.00;100542.06;6280935;22;20034;-86
2023/12/09 08:12:50;;;;;;;17.73;4.22;;;;;;;6.10;100.00;100537.72;6306550;22;20440;-86
2023/12/09 08:15:45;;;;;;;21.00;4.60;;;;;;;6.20;100.00;100546.69;6306847;22;20031;-87
2023/12/09 08:22:25;;;;;;;15.20;4.28;;;;;;;6.28;100.00;100542.50;6307837;22;20013;-88
2023/12/09 08:43:19;;;;;;;15.93;3.92;;;;;;;6.62;100.00;100535.41;6337325;22;21149;-87
2023/12/09 08:52:47;;;;;;;9.60;3.15;;;;;;;6.72;100.00;100518.97;6277506;22;20018;-87
2023/12/09 09:08:53;;;;;;;15.63;3.00;;;;;;;6.94;100.00;100496.69;6276410;22;20046;-87
2023/12/09 09:28:32;;;;;;;13.00;2.75;;;;;;;7.18;100.00;100394.66;6276046;22;20114;-86
2023/12/09 09:35:19;;;;;;;14.05;3.30;;;;;;;7.23;100.00;100400.88;6276138;22;20026;-87
2023/12/09 09:37:44;;;;;;;11.05;2.67;;;;;;;7.26;100.00;100390.44;6277197;22;20011;-86
2023/12/09 09:40:11;;;;;;;18.38;3.35;;;;;;;7.25;100.00;100398.28;6248900;22;20019;-86
2023/12/09 10:12:52;;;;;;;12.60;3.08;;;;;;;7.69;100.00;100317.47;6305444;22;20118;-86
2023/12/09 10:15:17;;;;;;;12.80;2.97;;;;;;;7.73;100.00;100298.25;6279556;22;20015;-86
2023/12/09 10:17:43;;;;;;;12.32;2.85;;;;;;;7.61;100.00;100277.03;6279773;22;20046;-86
2023/12/09 10:20:09;;;;;;;12.55;3.10;;;;;;;7.72;100.00;100279.81;6308964;22;20006;-87
2023/12/09 10:22:48;;;;;;;14.65;3.20;;;;;;;7.73;100.00;100260.56;6281618;22;20053;-87
2023/12/09 10:28:38;;;;;;;13.88;3.28;;;;;;;7.76;100.00;100253.59;6308667;22;20095;-87
2023/12/09 10:31:04;;;;;;;12.77;2.88;;;;;;;7.70;100.00;100231.56;6309464;22;20027;-87
2023/12/09 10:33:30;;;;;;;10.80;3.08;;;;;;;7.63;100.00;100222.75;6260837;22;20109;-86
2023/12/09 10:54:04;;;;;;;9.25;2.72;;;;;;;7.89;100.00;100173.06;6337981;22;20696;-86
2023/12/09 10:56:30;;;;;;;9.43;2.70;;;;;;;7.89;100.00;100143.25;6276273;22;20012;-87
2023/12/09 10:58:56;;;;;;;8.15;2.70;;;;;;;7.81;100.00;100113.38;6251285;22;20010;-87
2023/12/09 11:08:16;;;;;;;9.20;2.30;;;;;;;7.89;100.00;100116.97;6278819;22;20094;-90
2023/12/09 11:10:41;;;;;;;8.07;2.55;;;;;;;7.65;100.00;100067.63;6250572;22;20012;-89
2023/12/09 11:13:07;;;;;;;9.13;2.47;;;;;;;7.89;100.00;100103.81;6250296;22;20015;-89
2023/12/09 12:01:13;;;;;;;9.27;2.47;;;;;;;7.56;100.00;99871.25;6130916;23;20032;-93
2023/12/09 12:20:22;;;;;;;6.80;2.00;;;;;;;7.77;100.00;99820.53;5983599;23;20014;-95
2023/12/09 12:26:32;;;;;;;3.53;1.63;;;;;;;7.72;100.00;99741.63;6213410;23;20012;-93
2023/12/09 12:32:39;;;;;;;6.75;2.17;;;;;;;7.82;100.00;99757.44;6192599;23;20008;-93
2023/12/09 12:42:28;;;;;;;7.43;2.00;;;;;;;7.44;100.00;99629.34;6152517;23;20024;-93
2023/12/09 12:45:35;;;;;;;3.45;1.60;;;;;;;7.41;100.00;99618.81;6146096;23;20020;-95
2023/12/09 12:48:40;;;;;;;5.45;1.90;;;;;;;7.39;100.00;99631.97;6181227;23;20432;-94
2023/12/09 12:51:25;;;;;;;;;;;;;;;;;;;;;
2023/12/09 12:57:45;;;;;;;4.40;1.83;;;;;;;7.52;100.00;99585.56;6151285;23;20029;-92
2023/12/09 13:00:34;;;;;;;;;;;;;;;;;;;;;
2023/12/09 13:03:04;;;;;;;3.15;1.60;;;;;;;7.45;100.00;99603.09;6152485;23;20511;-94
2023/12/09 13:06:06;;;;;;;3.40;1.70;;;;;;;7.43;100.00;99588.19;6152868;23;20409;-92
2023/12/09 13:09:02;;;;;;;7.55;1.60;;;;;;;7.39;100.00;99570.66;6158694;22;20352;-94
2023/12/09 13:11:40;;;;;;;3.47;1.58;;;;;;;7.23;100.00;99536.44;6248236;22;20061;-93
2023/12/09 13:17:53;;;;;;;3.70;1.60;;;;;;;7.15;100.00;99479.47;6248912;22;20012;-92
2023/12/09 13:20:49;;;;;;;3.40;1.70;;;;;;;7.33;100.00;99497.94;6276087;22;20089;-92
2023/12/09 13:26:57;;;;;;;4.35;1.63;;;;;;;7.30;100.00;99510.19;6309313;22;20106;-91
2023/12/09 13:29:38;;;;;;;4.78;1.70;;;;;;;7.08;100.00;99469.84;6285385;22;20030;-92
2023/12/09 13:32:39;;;;;;;4.35;1.80;;;;;;;7.44;100.00;99521.59;6256214;22;20013;-91
2023/12/09 13:36:03;;;;;;;3.38;1.70;;;;;;;7.45;100.00;99512.81;6279733;22;20086;-90
2023/12/09 13:39:27;;;;;;;3.10;1.60;;;;;;;7.07;100.00;99434.84;6305251;22;20007;-91
2023/12/09 13:42:07;;;;;;;4.90;1.70;;;;;;;7.43;100.00;99493.56;6274725;22;20003;-89
2023/12/09 13:44:44;;;;;;;3.10;1.45;;;;;;;7.06;100.00;99426.94;6282308;22;20145;-90
2023/12/09 13:47:52;;;;;;;4.20;1.70;;;;;;;7.40;100.00;99490.94;6230281;22;20011;-90
2023/12/09 13:51:27;;;;;;;3.85;1.60;;;;;;;7.02;100.00;99408.56;6288802;22;20007;-91
2023/12/09 13:57:22;;;;;;;3.35;1.75;;;;;;;7.21;100.00;99400.69;6262585;22;20019;-90
2023/12/09 14:00:10;;;;;;;4.15;1.50;;;;;;;6.96;100.00;99348.13;6282710;22;20011;-90
2023/12/09 14:02:43;;;;;;;2.80;1.70;;;;;;;6.99;100.00;99342.03;6284078;22;20042;-90
2023/12/09 14:11:14;;;;;;;3.10;1.70;;;;;;;6.90;100.00;99303.50;6275762;22;20017;-90
2023/12/09 14:14:25;;;;;;;2.35;1.60;;;;;;;7.24;100.00;99354.31;6308363;22;20019;-91
2023/12/09 14:17:37;;;;;;;2.33;1.55;;;;;;;7.10;100.00;99342.03;6307719;22;20048;-91
2023/12/09 14:20:01;;;;;;;1.52;1.40;;;;;;;6.78;100.00;99262.38;6306422;22;20015;-91
2023/12/09 14:22:35;;;;;;;;;;;;;;;7.19;100.00;99345.50;6309679;22;20003;-91
2023/12/09 14:28:11;;;;;;;2.60;1.42;;;;;;;7.01;100.00;99295.63;6309181;22;20014;-91
2023/12/09 14:30:51;;;;;;;3.38;1.70;;;;;;;7.14;100.00;99312.25;6307547;22;20011;-93
2023/12/09 14:33:19;;;;;;;4.25;1.90;;;;;;;6.82;100.00;99252.75;6307579;22;20030;-90
2023/12/09 14:35:54;;;;;;;3.20;1.90;;;;;;;6.97;100.00;99263.22;6307534;22;19999;-90
2023/12/09 14:38:27;;;;;;;1.45;1.30;;;;;;;6.81;100.00;99227.38;6307636;22;20061;-89
2023/12/09 14:41:02;;;;;;;1.80;1.25;;;;;;;6.86;100.00;99217.75;6307428;22;20003;-90
2023/12/09 14:43:39;;;;;;;;;;;;;;;;;;;;;
2023/12/09 14:46:08;;;;;;;3.42;1.33;;;;;;;6.97;100.00;99254.47;6308869;22;20079;-91
2023/12/09 14:48:36;;;;;;;2.60;1.38;;;;;;;6.62;100.00;99209.84;6307686;22;20017;-91
2023/12/09 14:54:23;;;;;;;2.45;1.40;;;;;;;6.71;100.00;99200.22;6315939;22;20018;-91
2023/12/09 14:56:51;;;;;;;1.73;1.38;;;;;;;6.90;100.00;99219.50;6306721;22;20026;-91
2023/12/09 14:59:22;;;;;;;2.63;1.52;;;;;;;6.52;100.00;99135.50;6308950;22;20430;-93
2023/12/09 15:01:53;;;;;;;2.50;1.60;;;;;;;6.71;100.00;99178.34;6308878;22;20076;-93
2023/12/09 15:04:21;;;;;;;1.90;1.40;;;;;;;6.69;100.00;99156.50;6282155;22;20019;-93
2023/12/09 15:07:25;;;;;;;1.98;1.48;;;;;;;6.68;100.00;99168.75;6307402;22;20007;-94
2023/12/09 15:09:53;;;;;;;1.73;1.58;;;;;;;6.41;100.00;99105.78;6308085;22;20087;-92
2023/12/09 15:12:19;;;;;;;1.60;1.40;;;;;;;6.72;100.00;99112.75;6306716;22;20023;-91
2023/12/09 15:14:44;;;;;;;2.35;1.60;;;;;;;6.60;100.00;99111.91;6306817;22;20011;-91
2023/12/09 15:17:13;;;;;;;2.55;1.60;;;;;;;6.45;100.00;99112.78;6281279;22;20022;-92
2023/12/09 15:19:41;;;;;;;2.35;1.70;;;;;;;6.40;100.00;99110.16;6306790;22;20004;-92
2023/12/09 15:22:21;;;;;;;2.38;1.50;;;;;;;6.41;100.00;99090.03;6307103;22;20003;-93
2023/12/09 15:25:08;;;;;;;1.75;1.48;;;;;;;6.44;100.00;99098.78;6307108;22;20007;-92